WXM80 ListenWXM80 Stop

You find our weather info also at:

UK Metoffice

WeatherCloud

Weather Underground

Northeastern Weather Network

AWEKAS

Citizen Weather Observer Program (CWOP)

HAMweather, WeatherForYou, PWS Weather


Weather Underground History page Text

Daily Summary for April 15, 2017 Units:  Both    English   Metric
« Previous Day
Next Day »
Daily Weekly Monthly Yearly Custom
  High: Low: Average:
Temperature: 64.3 °F /  17.9 °C 40.3 °F /  4.6 °C 53.8 °F /  12.1 °C
Dew Point: 53.3 °F /  11.8 °C 35.9 °F /  2.2 °C 43.5 °F /  6.4 °C
Humidity: 90 % 37 % 70 %
Wind Speed: 10.7 mph /  17.2 km/h - 3.7 mph /  6 km/h
Wind Gust: 21.9 mph /  35.2 km/h - -
Wind:- - SSW
Pressure: 30.38 in /  1028.7 hPa 30.05 in /  1017.5 hPa -
Precipitation: 0.00 in /  0 mm    
Historical Graphs
 
 
Tabular Data for April 15, 2017
Time Temperature Dew Point Pressure Wind Wind Speed Wind Gust Humidity Rainfall Rate (Hourly)
00:00 46.7 °F /  8.2 °C 37.1 °F /  2.8 °C 30.37 in /  1028.3 hPa WSW 0.1 mph /  0.2 km/h 1.2 mph /  1.9 km/h 69 % 0.00 in /  0 mm
00:05 46.5 °F /  8.1 °C 37.2 °F /  2.9 °C 30.37 in /  1028.3 hPa WSW 0.1 mph /  0.2 km/h 1.2 mph /  1.9 km/h 70 % 0.00 in /  0 mm
00:10 46.3 °F /  7.9 °C 37.0 °F /  2.8 °C 30.37 in /  1028.3 hPa WSW 0.1 mph /  0.2 km/h 1.0 mph /  1.6 km/h 70 % 0.00 in /  0 mm
00:15 46.1 °F /  7.8 °C 37.2 °F /  2.9 °C 30.37 in /  1028.3 hPa Calm     71 % 0.00 in /  0 mm
00:20 45.9 °F /  7.7 °C 37.0 °F /  2.8 °C 30.37 in /  1028.3 hPa Calm     71 % 0.00 in /  0 mm
00:25 45.7 °F /  7.6 °C 37.2 °F /  2.9 °C 30.37 in /  1028.3 hPa Calm     72 % 0.00 in /  0 mm
00:30 45.4 °F /  7.4 °C 36.9 °F /  2.7 °C 30.38 in /  1028.7 hPa Calm     72 % 0.00 in /  0 mm
00:35 45.2 °F /  7.3 °C 36.7 °F /  2.6 °C 30.37 in /  1028.3 hPa WSW 0.1 mph /  0.2 km/h 1.2 mph /  1.9 km/h 72 % 0.00 in /  0 mm
00:40 44.9 °F /  7.2 °C 36.8 °F /  2.7 °C 30.37 in /  1028.3 hPa Calm     73 % 0.00 in /  0 mm
00:45 44.7 °F /  7.1 °C 36.9 °F /  2.7 °C 30.37 in /  1028.3 hPa Calm     74 % 0.00 in /  0 mm
00:50 44.5 °F /  6.9 °C 36.7 °F /  2.6 °C 30.37 in /  1028.3 hPa Calm     74 % 0.00 in /  0 mm
00:55 44.3 °F /  6.8 °C 36.5 °F /  2.5 °C 30.37 in /  1028.3 hPa Calm     74 % 0.00 in /  0 mm
01:00 44.1 °F /  6.7 °C 36.7 °F /  2.6 °C 30.37 in /  1028.3 hPa Calm     75 % 0.00 in /  0 mm
01:05 43.8 °F /  6.6 °C 36.4 °F /  2.4 °C 30.37 in /  1028.3 hPa Calm     75 % 0.00 in /  0 mm
01:10 43.7 °F /  6.5 °C 36.3 °F /  2.4 °C 30.37 in /  1028.3 hPa Calm     75 % 0.00 in /  0 mm
01:15 43.5 °F /  6.4 °C 36.4 °F /  2.4 °C 30.37 in /  1028.3 hPa Calm     76 % 0.00 in /  0 mm
01:21 43.4 °F /  6.3 °C 36.3 °F /  2.4 °C 30.37 in /  1028.3 hPa Calm     76 % 0.00 in /  0 mm
01:26 43.2 °F /  6.2 °C 36.1 °F /  2.3 °C 30.37 in /  1028.3 hPa Calm     76 % 0.00 in /  0 mm
01:31 43.1 °F /  6.2 °C 36.4 °F /  2.4 °C 30.37 in /  1028.3 hPa Calm     77 % 0.00 in /  0 mm
01:36 42.9 °F /  6.1 °C 36.2 °F /  2.3 °C 30.37 in /  1028.3 hPa Calm     77 % 0.00 in /  0 mm
01:41 42.7 °F /  5.9 °C 36.3 °F /  2.4 °C 30.37 in /  1028.3 hPa Calm     78 % 0.00 in /  0 mm
01:46 42.5 °F /  5.8 °C 36.1 °F /  2.3 °C 30.37 in /  1028.3 hPa Calm     78 % 0.00 in /  0 mm
01:51 42.4 °F /  5.8 °C 36.0 °F /  2.2 °C 30.37 in /  1028.3 hPa Calm     78 % 0.00 in /  0 mm
01:56 42.3 °F /  5.7 °C 36.3 °F /  2.4 °C 30.37 in /  1028.3 hPa Calm     79 % 0.00 in /  0 mm
02:01 42.1 °F /  5.6 °C 36.1 °F /  2.3 °C 30.37 in /  1028.3 hPa Calm     79 % 0.00 in /  0 mm
02:06 42.0 °F /  5.6 °C 36.0 °F /  2.2 °C 30.37 in /  1028.3 hPa Calm     79 % 0.00 in /  0 mm
02:11 41.9 °F /  5.5 °C 35.9 °F /  2.2 °C 30.36 in /  1028 hPa Calm     79 % 0.00 in /  0 mm
02:16 41.8 °F /  5.4 °C 36.1 °F /  2.3 °C 30.37 in /  1028.3 hPa Calm     80 % 0.00 in /  0 mm
02:21 41.7 °F /  5.4 °C 36.3 °F /  2.4 °C 30.36 in /  1028 hPa Calm     81 % 0.00 in /  0 mm
02:26 41.6 °F /  5.3 °C 36.5 °F /  2.5 °C 30.37 in /  1028.3 hPa Calm   1.2 mph /  1.9 km/h 82 % 0.00 in /  0 mm
02:31 41.5 °F /  5.3 °C 36.7 °F /  2.6 °C 30.37 in /  1028.3 hPa Calm     83 % 0.00 in /  0 mm
02:36 41.5 °F /  5.3 °C 36.7 °F /  2.6 °C 30.37 in /  1028.3 hPa Calm     83 % 0.00 in /  0 mm
02:41 41.4 °F /  5.2 °C 36.6 °F /  2.6 °C 30.36 in /  1028 hPa WSW 0.2 mph /  0.3 km/h 1.2 mph /  1.9 km/h 83 % 0.00 in /  0 mm
02:47 41.4 °F /  5.2 °C 36.9 °F /  2.7 °C 30.36 in /  1028 hPa Calm   1.2 mph /  1.9 km/h 84 % 0.00 in /  0 mm
02:52 41.4 °F /  5.2 °C 36.9 °F /  2.7 °C 30.37 in /  1028.3 hPa WSW 0.2 mph /  0.3 km/h 1.0 mph /  1.6 km/h 84 % 0.00 in /  0 mm
02:57 41.4 °F /  5.2 °C 36.9 °F /  2.7 °C 30.36 in /  1028 hPa Calm     84 % 0.00 in /  0 mm
03:02 41.4 °F /  5.2 °C 36.9 °F /  2.7 °C 30.36 in /  1028 hPa Calm     84 % 0.00 in /  0 mm
03:07 41.4 °F /  5.2 °C 36.9 °F /  2.7 °C 30.36 in /  1028 hPa Calm     84 % 0.00 in /  0 mm
03:12 41.4 °F /  5.2 °C 36.9 °F /  2.7 °C 30.36 in /  1028 hPa Calm     84 % 0.00 in /  0 mm
03:17 41.4 °F /  5.2 °C 36.9 °F /  2.7 °C 30.36 in /  1028 hPa Calm     84 % 0.00 in /  0 mm
03:22 41.5 °F /  5.3 °C 37.0 °F /  2.8 °C 30.36 in /  1028 hPa Calm     84 % 0.00 in /  0 mm
03:27 41.5 °F /  5.3 °C 37.0 °F /  2.8 °C 30.36 in /  1028 hPa Calm   1.0 mph /  1.6 km/h 84 % 0.00 in /  0 mm
03:32 41.5 °F /  5.3 °C 37.1 °F /  2.8 °C 30.36 in /  1028 hPa Calm   1.0 mph /  1.6 km/h 84 % 0.00 in /  0 mm
03:37 41.6 °F /  5.3 °C 37.1 °F /  2.8 °C 30.36 in /  1028 hPa WSW 0.1 mph /  0.2 km/h 1.0 mph /  1.6 km/h 84 % 0.00 in /  0 mm
03:42 41.6 °F /  5.3 °C 37.1 °F /  2.8 °C 30.36 in /  1028 hPa Calm   1.0 mph /  1.6 km/h 84 % 0.00 in /  0 mm
03:47 41.7 °F /  5.4 °C 37.2 °F /  2.9 °C 30.36 in /  1028 hPa Calm   1.0 mph /  1.6 km/h 84 % 0.00 in /  0 mm
03:52 41.8 °F /  5.4 °C 37.3 °F /  2.9 °C 30.36 in /  1028 hPa Calm   2.0 mph /  3.2 km/h 84 % 0.00 in /  0 mm
03:57 41.8 °F /  5.4 °C 37.3 °F /  2.9 °C 30.36 in /  1028 hPa Calm   1.2 mph /  1.9 km/h 84 % 0.00 in /  0 mm
04:02 41.9 °F /  5.5 °C 37.4 °F /  3 °C 30.36 in /  1028 hPa WSW 0.4 mph /  0.6 km/h 2.3 mph /  3.7 km/h 84 % 0.00 in /  0 mm
04:07 42.0 °F /  5.6 °C 37.8 °F /  3.2 °C 30.36 in /  1028 hPa Calm   1.2 mph /  1.9 km/h 85 % 0.00 in /  0 mm
04:12 42.0 °F /  5.6 °C 37.5 °F /  3.1 °C 30.36 in /  1028 hPa Calm     84 % 0.00 in /  0 mm
04:17 42.0 °F /  5.6 °C 37.5 °F /  3.1 °C 30.36 in /  1028 hPa Calm     84 % 0.00 in /  0 mm
04:22 42.0 °F /  5.6 °C 37.5 °F /  3.1 °C 30.36 in /  1028 hPa Calm     84 % 0.00 in /  0 mm
04:27 42.0 °F /  5.6 °C 37.5 °F /  3.1 °C 30.36 in /  1028 hPa Calm     84 % 0.00 in /  0 mm
04:32 41.9 °F /  5.5 °C 37.4 °F /  3 °C 30.36 in /  1028 hPa Calm     84 % 0.00 in /  0 mm
04:37 41.9 °F /  5.5 °C 37.1 °F /  2.8 °C 30.36 in /  1028 hPa Calm     83 % 0.00 in /  0 mm
04:42 41.8 °F /  5.4 °C 37.0 °F /  2.8 °C 30.36 in /  1028 hPa Calm     83 % 0.00 in /  0 mm
04:47 41.8 °F /  5.4 °C 37.0 °F /  2.8 °C 30.36 in /  1028 hPa Calm     83 % 0.00 in /  0 mm
04:52 41.7 °F /  5.4 °C 36.9 °F /  2.7 °C 30.35 in /  1027.7 hPa Calm     83 % 0.00 in /  0 mm
04:57 41.6 °F /  5.3 °C 36.8 °F /  2.7 °C 30.35 in /  1027.7 hPa Calm     83 % 0.00 in /  0 mm
05:02 41.6 °F /  5.3 °C 37.1 °F /  2.8 °C 30.35 in /  1027.7 hPa Calm     84 % 0.00 in /  0 mm
05:07 41.5 °F /  5.3 °C 37.0 °F /  2.8 °C 30.35 in /  1027.7 hPa Calm   1.2 mph /  1.9 km/h 84 % 0.00 in /  0 mm
05:13 41.4 °F /  5.2 °C 36.9 °F /  2.7 °C 30.35 in /  1027.7 hPa Calm   1.2 mph /  1.9 km/h 84 % 0.00 in /  0 mm
05:18 41.3 °F /  5.2 °C 36.8 °F /  2.7 °C 30.35 in /  1027.7 hPa WSW 0.2 mph /  0.3 km/h 2.3 mph /  3.7 km/h 84 % 0.00 in /  0 mm
05:23 41.2 °F /  5.1 °C 36.7 °F /  2.6 °C 30.35 in /  1027.7 hPa Calm   2.3 mph /  3.7 km/h 84 % 0.00 in /  0 mm
05:28 41.2 °F /  5.1 °C 37.0 °F /  2.8 °C 30.35 in /  1027.7 hPa Calm     85 % 0.00 in /  0 mm
05:33 41.1 °F /  5.1 °C 36.9 °F /  2.7 °C 30.35 in /  1027.7 hPa Calm     85 % 0.00 in /  0 mm
05:38 41.1 °F /  5.1 °C 36.9 °F /  2.7 °C 30.35 in /  1027.7 hPa WSW 0.1 mph /  0.2 km/h 1.2 mph /  1.9 km/h 85 % 0.00 in /  0 mm
05:43 41.0 °F /  5 °C 36.5 °F /  2.5 °C 30.35 in /  1027.7 hPa Calm     84 % 0.00 in /  0 mm
05:48 40.9 °F /  4.9 °C 36.4 °F /  2.4 °C 30.36 in /  1028 hPa WSW 0.4 mph /  0.6 km/h 1.2 mph /  1.9 km/h 84 % 0.00 in /  0 mm
05:53 40.9 °F /  4.9 °C 36.7 °F /  2.6 °C 30.36 in /  1028 hPa Calm   1.2 mph /  1.9 km/h 85 % 0.00 in /  0 mm
05:58 40.7 °F /  4.8 °C 36.5 °F /  2.5 °C 30.36 in /  1028 hPa Calm     85 % 0.00 in /  0 mm
06:03 40.7 °F /  4.8 °C 36.5 °F /  2.5 °C 30.36 in /  1028 hPa Calm     85 % 0.00 in /  0 mm
06:08 40.6 °F /  4.8 °C 36.4 °F /  2.4 °C 30.35 in /  1027.7 hPa Calm     85 % 0.00 in /  0 mm
06:13 40.5 °F /  4.7 °C 36.6 °F /  2.6 °C 30.35 in /  1027.7 hPa Calm     86 % 0.00 in /  0 mm
06:18 40.5 °F /  4.7 °C 36.6 °F /  2.6 °C 30.35 in /  1027.7 hPa Calm     86 % 0.00 in /  0 mm
06:23 40.4 °F /  4.7 °C 36.5 °F /  2.5 °C 30.35 in /  1027.7 hPa Calm   1.2 mph /  1.9 km/h 86 % 0.00 in /  0 mm
06:28 40.4 °F /  4.7 °C 36.5 °F /  2.5 °C 30.35 in /  1027.7 hPa WSW 0.2 mph /  0.3 km/h 1.2 mph /  1.9 km/h 86 % 0.00 in /  0 mm
06:33 40.3 °F /  4.6 °C 36.4 °F /  2.4 °C 30.35 in /  1027.7 hPa Calm     86 % 0.00 in /  0 mm
06:38 40.3 °F /  4.6 °C 36.4 °F /  2.4 °C 30.35 in /  1027.7 hPa WSW 0.7 mph /  1.1 km/h 2.3 mph /  3.7 km/h 86 % 0.00 in /  0 mm
06:43 40.3 °F /  4.6 °C 36.7 °F /  2.6 °C 30.35 in /  1027.7 hPa WSW 0.8 mph /  1.3 km/h 2.3 mph /  3.7 km/h 87 % 0.00 in /  0 mm
06:44 40.4 °F /  4.7 °C 36.8 °F /  2.7 °C 30.35 in /  1027.7 hPa WSW 0.1 mph /  0.2 km/h 1.2 mph /  1.9 km/h 87 % 0.00 in /  0 mm
06:49 40.6 °F /  4.8 °C 37.3 °F /  2.9 °C 30.36 in /  1028 hPa SW 0.6 mph /  1 km/h 2.3 mph /  3.7 km/h 88 % 0.00 in /  0 mm
06:54 40.8 °F /  4.9 °C 37.5 °F /  3.1 °C 30.35 in /  1027.7 hPa Calm   2.0 mph /  3.2 km/h 88 % 0.00 in /  0 mm
06:59 41.1 °F /  5.1 °C 38.1 °F /  3.4 °C 30.36 in /  1028 hPa SW 0.6 mph /  1 km/h 3.0 mph /  4.8 km/h 89 % 0.00 in /  0 mm
07:05 41.5 °F /  5.3 °C 38.5 °F /  3.6 °C 30.36 in /  1028 hPa SW 0.6 mph /  1 km/h 2.3 mph /  3.7 km/h 89 % 0.00 in /  0 mm
07:10 42.0 °F /  5.6 °C 39.3 °F /  4.1 °C 30.36 in /  1028 hPa SW 0.1 mph /  0.2 km/h 1.0 mph /  1.6 km/h 90 % 0.00 in /  0 mm
07:15 42.5 °F /  5.8 °C 39.8 °F /  4.3 °C 30.36 in /  1028 hPa SW 0.2 mph /  0.3 km/h 1.2 mph /  1.9 km/h 90 % 0.00 in /  0 mm
07:20 43.1 °F /  6.2 °C 40.4 °F /  4.7 °C 30.36 in /  1028 hPa SW 0.1 mph /  0.2 km/h 1.2 mph /  1.9 km/h 90 % 0.00 in /  0 mm
07:25 43.5 °F /  6.4 °C 40.8 °F /  4.9 °C 30.36 in /  1028 hPa SW 0.2 mph /  0.3 km/h 1.2 mph /  1.9 km/h 90 % 0.00 in /  0 mm
07:30 44.2 °F /  6.8 °C 41.5 °F /  5.3 °C 30.36 in /  1028 hPa SW 0.5 mph /  0.8 km/h 1.2 mph /  1.9 km/h 90 % 0.00 in /  0 mm
07:35 44.9 °F /  7.2 °C 41.9 °F /  5.5 °C 30.37 in /  1028.3 hPa South 1.5 mph /  2.4 km/h 3.5 mph /  5.6 km/h 89 % 0.00 in /  0 mm
07:40 45.6 °F /  7.6 °C 42.3 °F /  5.7 °C 30.37 in /  1028.3 hPa South 0.2 mph /  0.3 km/h 2.3 mph /  3.7 km/h 88 % 0.00 in /  0 mm
07:45 46.2 °F /  7.9 °C 42.5 °F /  5.8 °C 30.37 in /  1028.3 hPa South 2.4 mph /  3.9 km/h 4.6 mph /  7.4 km/h 87 % 0.00 in /  0 mm
07:50 46.9 °F /  8.3 °C 42.9 °F /  6.1 °C 30.37 in /  1028.3 hPa SSW 0.7 mph /  1.1 km/h 3.5 mph /  5.6 km/h 86 % 0.00 in /  0 mm
07:55 47.6 °F /  8.7 °C 43.3 °F /  6.3 °C 30.37 in /  1028.3 hPa South 1.8 mph /  2.9 km/h 4.0 mph /  6.4 km/h 85 % 0.00 in /  0 mm
08:00 48.4 °F /  9.1 °C 43.2 °F /  6.2 °C 30.37 in /  1028.3 hPa South 1.2 mph /  1.9 km/h 4.0 mph /  6.4 km/h 82 % 0.00 in /  0 mm
08:05 49.2 °F /  9.6 °C 43.6 °F /  6.4 °C 30.37 in /  1028.3 hPa South 0.6 mph /  1 km/h 2.0 mph /  3.2 km/h 81 % 0.00 in /  0 mm
08:07 49.4 °F /  9.7 °C 43.5 °F /  6.4 °C 30.37 in /  1028.3 hPa WSW 2.3 mph /  3.7 km/h 3.5 mph /  5.6 km/h 80 % 0.00 in /  0 mm
08:12 50.3 °F /  10.2 °C 43.4 °F /  6.3 °C 30.37 in /  1028.3 hPa SSW 1.8 mph /  2.9 km/h 5.8 mph /  9.3 km/h 77 % 0.00 in /  0 mm
08:17 50.9 °F /  10.5 °C 43.3 °F /  6.3 °C 30.37 in /  1028.3 hPa SW 4.4 mph /  7.1 km/h 6.9 mph /  11.1 km/h 75 % 0.00 in /  0 mm
08:22 51.6 °F /  10.9 °C 43.6 °F /  6.4 °C 30.37 in /  1028.3 hPa SW 4.4 mph /  7.1 km/h 5.8 mph /  9.3 km/h 74 % 0.00 in /  0 mm
08:27 52.4 °F /  11.3 °C 44.0 °F /  6.7 °C 30.37 in /  1028.3 hPa South 2.6 mph /  4.2 km/h 6.9 mph /  11.1 km/h 73 % 0.00 in /  0 mm
08:32 53.0 °F /  11.7 °C 44.2 °F /  6.8 °C 30.36 in /  1028 hPa SSW 3.0 mph /  4.8 km/h 5.8 mph /  9.3 km/h 72 % 0.00 in /  0 mm
08:37 53.7 °F /  12.1 °C 44.1 °F /  6.7 °C 30.37 in /  1028.3 hPa SW 3.3 mph /  5.3 km/h 5.8 mph /  9.3 km/h 70 % 0.00 in /  0 mm
08:42 54.1 °F /  12.3 °C 43.4 °F /  6.3 °C 30.36 in /  1028 hPa WSW 4.4 mph /  7.1 km/h 8.0 mph /  12.9 km/h 67 % 0.00 in /  0 mm
08:47 54.8 °F /  12.7 °C 43.7 °F /  6.5 °C 30.36 in /  1028 hPa SSW 4.1 mph /  6.6 km/h 6.9 mph /  11.1 km/h 66 % 0.00 in /  0 mm
08:52 55.4 °F /  13 °C 43.0 °F /  6.1 °C 30.36 in /  1028 hPa SW 4.5 mph /  7.2 km/h 8.1 mph /  13 km/h 63 % 0.00 in /  0 mm
08:57 56.1 °F /  13.4 °C 42.8 °F /  6 °C 30.36 in /  1028 hPa SSW 6.6 mph /  10.6 km/h 8.1 mph /  13 km/h 61 % 0.00 in /  0 mm
09:02 56.7 °F /  13.7 °C 43.0 °F /  6.1 °C 30.36 in /  1028 hPa SW 6.3 mph /  10.1 km/h 8.0 mph /  12.9 km/h 60 % 0.00 in /  0 mm
09:07 57.2 °F /  14 °C 43.4 °F /  6.3 °C 30.36 in /  1028 hPa SSW 6.9 mph /  11.1 km/h 11.0 mph /  17.7 km/h 60 % 0.00 in /  0 mm
09:12 57.4 °F /  14.1 °C 42.7 °F /  5.9 °C 30.36 in /  1028 hPa SW 7.0 mph /  11.3 km/h 12.0 mph /  19.3 km/h 58 % 0.00 in /  0 mm
09:17 57.7 °F /  14.3 °C 42.6 °F /  5.9 °C 30.36 in /  1028 hPa SSW 8.0 mph /  12.9 km/h 14.0 mph /  22.5 km/h 57 % 0.00 in /  0 mm
09:22 57.9 °F /  14.4 °C 42.8 °F /  6 °C 30.36 in /  1028 hPa SSW 8.0 mph /  12.9 km/h 14.0 mph /  22.5 km/h 57 % 0.00 in /  0 mm
09:27 58.2 °F /  14.6 °C 42.6 °F /  5.9 °C 30.36 in /  1028 hPa SSW 5.0 mph /  8 km/h 17.0 mph /  27.4 km/h 56 % 0.00 in /  0 mm
09:32 58.7 °F /  14.8 °C 44.0 °F /  6.7 °C 30.36 in /  1028 hPa SSW 7.0 mph /  11.3 km/h 9.0 mph /  14.5 km/h 58 % 0.00 in /  0 mm
09:37 59.4 °F /  15.2 °C 43.7 °F /  6.5 °C 30.36 in /  1028 hPa South 2.2 mph /  3.5 km/h 4.6 mph /  7.4 km/h 56 % 0.00 in /  0 mm
09:42 60.1 °F /  15.6 °C 42.9 °F /  6.1 °C 30.36 in /  1028 hPa SSW 3.0 mph /  4.8 km/h 7.0 mph /  11.3 km/h 53 % 0.00 in /  0 mm
09:47 61.2 °F /  16.2 °C 44.9 °F /  7.2 °C 30.35 in /  1027.7 hPa SSW 3.9 mph /  6.3 km/h 5.8 mph /  9.3 km/h 55 % 0.00 in /  0 mm
09:52 61.8 °F /  16.6 °C 43.0 °F /  6.1 °C 30.35 in /  1027.7 hPa SSW 6.0 mph /  9.7 km/h 15.0 mph /  24.1 km/h 50 % 0.00 in /  0 mm
09:57 62.1 °F /  16.7 °C 43.2 °F /  6.2 °C 30.35 in /  1027.7 hPa SSW 5.6 mph /  9 km/h 11.0 mph /  17.7 km/h 50 % 0.00 in /  0 mm
10:02 62.1 °F /  16.7 °C 43.2 °F /  6.2 °C 30.35 in /  1027.7 hPa SE 6.8 mph /  10.9 km/h 12.7 mph /  20.4 km/h 50 % 0.00 in /  0 mm
10:07 62.3 °F /  16.8 °C 43.4 °F /  6.3 °C 30.35 in /  1027.7 hPa SSW 7.0 mph /  11.3 km/h 14.0 mph /  22.5 km/h 50 % 0.00 in /  0 mm
10:12 62.4 °F /  16.9 °C 42.4 °F /  5.8 °C 30.35 in /  1027.7 hPa SSW 6.0 mph /  9.7 km/h 14.0 mph /  22.5 km/h 48 % 0.00 in /  0 mm
10:17 62.5 °F /  16.9 °C 42.5 °F /  5.8 °C 30.35 in /  1027.7 hPa South 6.2 mph /  10 km/h 12.7 mph /  20.4 km/h 48 % 0.00 in /  0 mm
10:22 62.7 °F /  17.1 °C 43.8 °F /  6.6 °C 30.35 in /  1027.7 hPa SSW 6.0 mph /  9.7 km/h 7.0 mph /  11.3 km/h 50 % 0.00 in /  0 mm
10:27 62.7 °F /  17.1 °C 42.2 °F /  5.7 °C 30.35 in /  1027.7 hPa SSW 5.0 mph /  8 km/h 13.0 mph /  20.9 km/h 47 % 0.00 in /  0 mm
10:32 62.9 °F /  17.2 °C 41.2 °F /  5.1 °C 30.35 in /  1027.7 hPa SSW 6.0 mph /  9.7 km/h 10.4 mph /  16.7 km/h 45 % 0.00 in /  0 mm
10:37 63.0 °F /  17.2 °C 40.7 °F /  4.8 °C 30.35 in /  1027.7 hPa SW 8.1 mph /  13 km/h 8.1 mph /  13 km/h 44 % 0.00 in /  0 mm
10:42 63.2 °F /  17.3 °C 39.1 °F /  3.9 °C 30.35 in /  1027.7 hPa SW 8.3 mph /  13.4 km/h 11.5 mph /  18.5 km/h 41 % 0.00 in /  0 mm
10:47 63.5 °F /  17.5 °C 40.0 °F /  4.4 °C 30.35 in /  1027.7 hPa SSW 4.6 mph /  7.4 km/h 11.5 mph /  18.5 km/h 42 % 0.00 in /  0 mm
10:52 63.8 °F /  17.7 °C 39.6 °F /  4.2 °C 30.35 in /  1027.7 hPa WNW 5.5 mph /  8.9 km/h 12.7 mph /  20.4 km/h 41 % 0.00 in /  0 mm
10:57 64.0 °F /  17.8 °C 39.2 °F /  4 °C 30.34 in /  1027.3 hPa SW 7.4 mph /  11.9 km/h 9.0 mph /  14.5 km/h 40 % 0.00 in /  0 mm
11:02 63.9 °F /  17.7 °C 39.7 °F /  4.3 °C 30.34 in /  1027.3 hPa SW 6.9 mph /  11.1 km/h 9.2 mph /  14.8 km/h 41 % 0.00 in /  0 mm
11:07 63.9 °F /  17.7 °C 39.7 °F /  4.3 °C 30.34 in /  1027.3 hPa SSW 4.6 mph /  7.4 km/h 11.5 mph /  18.5 km/h 41 % 0.00 in /  0 mm
11:12 63.8 °F /  17.7 °C 40.3 °F /  4.6 °C 30.34 in /  1027.3 hPa SSW 5.0 mph /  8 km/h 7.0 mph /  11.3 km/h 42 % 0.00 in /  0 mm
11:17 63.9 °F /  17.7 °C 40.3 °F /  4.6 °C 30.34 in /  1027.3 hPa South 5.8 mph /  9.3 km/h 9.2 mph /  14.8 km/h 42 % 0.00 in /  0 mm
11:22 63.8 °F /  17.7 °C 39.6 °F /  4.2 °C 30.33 in /  1027 hPa SSW 5.1 mph /  8.2 km/h 8.1 mph /  13 km/h 41 % 0.00 in /  0 mm
11:27 64.0 °F /  17.8 °C 39.8 °F /  4.3 °C 30.33 in /  1027 hPa SW 7.0 mph /  11.3 km/h 15.0 mph /  24.1 km/h 41 % 0.00 in /  0 mm
11:32 64.0 °F /  17.8 °C 38.5 °F /  3.6 °C 30.33 in /  1027 hPa SSW 5.0 mph /  8 km/h 15.0 mph /  24.1 km/h 39 % 0.00 in /  0 mm
11:37 64.1 °F /  17.8 °C 38.0 °F /  3.3 °C 30.33 in /  1027 hPa SSW 7.0 mph /  11.3 km/h 12.0 mph /  19.3 km/h 38 % 0.00 in /  0 mm
11:42 64.3 °F /  17.9 °C 38.8 °F /  3.8 °C 30.33 in /  1027 hPa SSW 3.0 mph /  4.8 km/h 9.0 mph /  14.5 km/h 39 % 0.00 in /  0 mm
11:47 64.2 °F /  17.9 °C 38.7 °F /  3.7 °C 30.33 in /  1027 hPa South 7.0 mph /  11.3 km/h 10.0 mph /  16.1 km/h 39 % 0.00 in /  0 mm
11:52 64.0 °F /  17.8 °C 38.6 °F /  3.7 °C 30.32 in /  1026.6 hPa South 3.0 mph /  4.8 km/h 9.0 mph /  14.5 km/h 39 % 0.00 in /  0 mm
11:57 63.6 °F /  17.6 °C 38.2 °F /  3.4 °C 30.32 in /  1026.6 hPa SSW 6.8 mph /  10.9 km/h 13.8 mph /  22.2 km/h 39 % 0.00 in /  0 mm
12:02 63.5 °F /  17.5 °C 38.7 °F /  3.7 °C 30.32 in /  1026.6 hPa South 6.3 mph /  10.1 km/h 10.4 mph /  16.7 km/h 40 % 0.00 in /  0 mm
12:07 63.3 °F /  17.4 °C 37.9 °F /  3.3 °C 30.32 in /  1026.6 hPa SSW 7.9 mph /  12.7 km/h 11.5 mph /  18.5 km/h 39 % 0.00 in /  0 mm
12:12 62.9 °F /  17.2 °C 38.2 °F /  3.4 °C 30.31 in /  1026.3 hPa SW 5.7 mph /  9.2 km/h 8.0 mph /  12.9 km/h 40 % 0.00 in /  0 mm
12:17 62.6 °F /  17 °C 37.3 °F /  2.9 °C 30.31 in /  1026.3 hPa SSE 4.9 mph /  7.9 km/h 9.2 mph /  14.8 km/h 39 % 0.00 in /  0 mm
12:22 62.7 °F /  17.1 °C 37.4 °F /  3 °C 30.31 in /  1026.3 hPa SSW 4.7 mph /  7.6 km/h 7.0 mph /  11.3 km/h 39 % 0.00 in /  0 mm
12:27 63.0 °F /  17.2 °C 38.9 °F /  3.8 °C 30.30 in /  1026 hPa SSE 4.8 mph /  7.7 km/h 7.0 mph /  11.3 km/h 41 % 0.00 in /  0 mm
12:32 63.1 °F /  17.3 °C 37.7 °F /  3.2 °C 30.30 in /  1026 hPa SSW 4.9 mph /  7.9 km/h 8.1 mph /  13 km/h 39 % 0.00 in /  0 mm
12:37 63.4 °F /  17.4 °C 37.3 °F /  2.9 °C 30.30 in /  1026 hPa SW 5.4 mph /  8.7 km/h 6.9 mph /  11.1 km/h 38 % 0.00 in /  0 mm
12:42 63.7 °F /  17.6 °C 37.6 °F /  3.1 °C 30.30 in /  1026 hPa South 3.2 mph /  5.1 km/h 8.1 mph /  13 km/h 38 % 0.00 in /  0 mm
12:47 63.8 °F /  17.7 °C 37.0 °F /  2.8 °C 30.30 in /  1026 hPa SSW 4.2 mph /  6.8 km/h 9.2 mph /  14.8 km/h 37 % 0.00 in /  0 mm
12:53 63.6 °F /  17.6 °C 36.8 °F /  2.7 °C 30.30 in /  1026 hPa SSW 6.8 mph /  10.9 km/h 10.4 mph /  16.7 km/h 37 % 0.00 in /  0 mm
12:58 63.1 °F /  17.3 °C 38.4 °F /  3.6 °C 30.29 in /  1025.6 hPa South 4.3 mph /  6.9 km/h 6.9 mph /  11.1 km/h 40 % 0.00 in /  0 mm
13:03 62.9 °F /  17.2 °C 38.8 °F /  3.8 °C 30.29 in /  1025.6 hPa SSW 4.2 mph /  6.8 km/h 7.0 mph /  11.3 km/h 41 % 0.00 in /  0 mm
13:08 62.9 °F /  17.2 °C 39.4 °F /  4.1 °C 30.28 in /  1025.3 hPa South 4.8 mph /  7.7 km/h 11.5 mph /  18.5 km/h 42 % 0.00 in /  0 mm
13:13 63.1 °F /  17.3 °C 39.6 °F /  4.2 °C 30.29 in /  1025.6 hPa SSE 4.9 mph /  7.9 km/h 7.0 mph /  11.3 km/h 42 % 0.00 in /  0 mm
13:18 63.0 °F /  17.2 °C 38.9 °F /  3.8 °C 30.29 in /  1025.6 hPa SSW 5.7 mph /  9.2 km/h 10.4 mph /  16.7 km/h 41 % 0.00 in /  0 mm
13:23 62.9 °F /  17.2 °C 40.0 °F /  4.4 °C 30.29 in /  1025.6 hPa South 9.3 mph /  15 km/h 11.5 mph /  18.5 km/h 43 % 0.00 in /  0 mm
13:28 62.8 °F /  17.1 °C 40.0 °F /  4.4 °C 30.28 in /  1025.3 hPa SSW 3.2 mph /  5.1 km/h 6.9 mph /  11.1 km/h 43 % 0.00 in /  0 mm
13:33 63.0 °F /  17.2 °C 40.1 °F /  4.5 °C 30.28 in /  1025.3 hPa SSW 4.7 mph /  7.6 km/h 7.0 mph /  11.3 km/h 43 % 0.00 in /  0 mm
13:38 63.1 °F /  17.3 °C 40.8 °F /  4.9 °C 30.28 in /  1025.3 hPa SSW 7.7 mph /  12.4 km/h 11.5 mph /  18.5 km/h 44 % 0.00 in /  0 mm
13:43 62.9 °F /  17.2 °C 41.8 °F /  5.4 °C 30.28 in /  1025.3 hPa South 10.7 mph /  17.2 km/h 13.8 mph /  22.2 km/h 46 % 0.00 in /  0 mm
13:48 62.4 °F /  16.9 °C 41.9 °F /  5.5 °C 30.28 in /  1025.3 hPa South 8.3 mph /  13.4 km/h 16.1 mph /  25.9 km/h 47 % 0.00 in /  0 mm
13:53 62.0 °F /  16.7 °C 42.1 °F /  5.6 °C 30.29 in /  1025.6 hPa SW 9.9 mph /  15.9 km/h 16.0 mph /  25.7 km/h 48 % 0.00 in /  0 mm
13:58 61.8 °F /  16.6 °C 43.0 °F /  6.1 °C 30.29 in /  1025.6 hPa South 3.2 mph /  5.1 km/h 9.0 mph /  14.5 km/h 50 % 0.00 in /  0 mm
14:03 61.6 °F /  16.4 °C 42.8 °F /  6 °C 30.28 in /  1025.3 hPa SSW 5.0 mph /  8 km/h 11.5 mph /  18.5 km/h 50 % 0.00 in /  0 mm
14:08 61.5 °F /  16.4 °C 43.7 °F /  6.5 °C 30.28 in /  1025.3 hPa SW 5.0 mph /  8 km/h 13.0 mph /  20.9 km/h 52 % 0.00 in /  0 mm
14:13 61.5 °F /  16.4 °C 43.7 °F /  6.5 °C 30.27 in /  1024.9 hPa SSW 6.9 mph /  11.1 km/h 10.4 mph /  16.7 km/h 52 % 0.00 in /  0 mm
14:18 61.5 °F /  16.4 °C 44.7 °F /  7.1 °C 30.26 in /  1024.6 hPa South 4.7 mph /  7.6 km/h 11.5 mph /  18.5 km/h 54 % 0.00 in /  0 mm
14:23 61.8 °F /  16.6 °C 45.5 °F /  7.5 °C 30.26 in /  1024.6 hPa South 6.0 mph /  9.7 km/h 9.2 mph /  14.8 km/h 55 % 0.00 in /  0 mm
14:28 62.1 °F /  16.7 °C 45.7 °F /  7.6 °C 30.26 in /  1024.6 hPa South 5.4 mph /  8.7 km/h 8.1 mph /  13 km/h 55 % 0.00 in /  0 mm
14:33 62.1 °F /  16.7 °C 45.7 °F /  7.6 °C 30.25 in /  1024.3 hPa South 6.5 mph /  10.5 km/h 6.9 mph /  11.1 km/h 55 % 0.00 in /  0 mm
14:38 62.1 °F /  16.7 °C 45.7 °F /  7.6 °C 30.25 in /  1024.3 hPa SW 10.6 mph /  17.1 km/h 12.0 mph /  19.3 km/h 55 % 0.00 in /  0 mm
14:43 61.8 °F /  16.6 °C 45.5 °F /  7.5 °C 30.25 in /  1024.3 hPa SSW 8.1 mph /  13 km/h 11.5 mph /  18.5 km/h 55 % 0.00 in /  0 mm
14:48 61.8 °F /  16.6 °C 45.9 °F /  7.7 °C 30.25 in /  1024.3 hPa SSE 5.1 mph /  8.2 km/h 11.5 mph /  18.5 km/h 56 % 0.00 in /  0 mm
14:53 61.8 °F /  16.6 °C 45.0 °F /  7.2 °C 30.24 in /  1023.9 hPa SSW 4.3 mph /  6.9 km/h 8.1 mph /  13 km/h 54 % 0.00 in /  0 mm
14:58 61.7 °F /  16.5 °C 45.4 °F /  7.4 °C 30.24 in /  1023.9 hPa South 5.4 mph /  8.7 km/h 11.0 mph /  17.7 km/h 55 % 0.00 in /  0 mm
15:03 61.6 °F /  16.4 °C 44.8 °F /  7.1 °C 30.24 in /  1023.9 hPa South 7.2 mph /  11.6 km/h 9.2 mph /  14.8 km/h 54 % 0.00 in /  0 mm
15:08 61.3 °F /  16.3 °C 44.0 °F /  6.7 °C 30.24 in /  1023.9 hPa South 5.5 mph /  8.9 km/h 10.4 mph /  16.7 km/h 53 % 0.00 in /  0 mm
15:13 61.0 °F /  16.1 °C 44.2 °F /  6.8 °C 30.24 in /  1023.9 hPa SSE 6.6 mph /  10.6 km/h 9.2 mph /  14.8 km/h 54 % 0.00 in /  0 mm
15:18 60.9 °F /  16.1 °C 44.6 °F /  7 °C 30.23 in /  1023.6 hPa SW 4.5 mph /  7.2 km/h 11.5 mph /  18.5 km/h 55 % 0.00 in /  0 mm
15:23 61.2 °F /  16.2 °C 45.8 °F /  7.7 °C 30.22 in /  1023.2 hPa SW 3.0 mph /  4.8 km/h 4.6 mph /  7.4 km/h 57 % 0.00 in /  0 mm
15:28 61.6 °F /  16.4 °C 46.7 °F /  8.2 °C 30.22 in /  1023.2 hPa South 3.7 mph /  6 km/h 6.9 mph /  11.1 km/h 58 % 0.00 in /  0 mm
15:33 62.1 °F /  16.7 °C 46.7 °F /  8.2 °C 30.22 in /  1023.2 hPa ESE 4.7 mph /  7.6 km/h 8.1 mph /  13 km/h 57 % 0.00 in /  0 mm
15:38 62.2 °F /  16.8 °C 46.8 °F /  8.2 °C 30.21 in /  1022.9 hPa SSW 4.8 mph /  7.7 km/h 8.0 mph /  12.9 km/h 57 % 0.00 in /  0 mm
15:43 62.2 °F /  16.8 °C 46.8 °F /  8.2 °C 30.21 in /  1022.9 hPa SSW 6.4 mph /  10.3 km/h 7.0 mph /  11.3 km/h 57 % 0.00 in /  0 mm
15:48 62.1 °F /  16.7 °C 47.1 °F /  8.4 °C 30.20 in /  1022.6 hPa SSW 1.6 mph /  2.6 km/h 6.9 mph /  11.1 km/h 58 % 0.00 in /  0 mm
15:53 62.2 °F /  16.8 °C 46.8 °F /  8.2 °C 30.20 in /  1022.6 hPa SSW 3.0 mph /  4.8 km/h 12.7 mph /  20.4 km/h 57 % 0.00 in /  0 mm
15:56 62.3 °F /  16.8 °C 47.8 °F /  8.8 °C 30.20 in /  1022.6 hPa SSW 5.2 mph /  8.4 km/h 10.4 mph /  16.7 km/h 59 % 0.00 in /  0 mm
16:01 62.5 °F /  16.9 °C 47.5 °F /  8.6 °C 30.20 in /  1022.6 hPa SSW 6.2 mph /  10 km/h 10.4 mph /  16.7 km/h 58 % 0.00 in /  0 mm
16:07 62.6 °F /  17 °C 47.6 °F /  8.7 °C 30.20 in /  1022.6 hPa South 6.5 mph /  10.5 km/h 11.5 mph /  18.5 km/h 58 % 0.00 in /  0 mm
16:12 62.5 °F /  16.9 °C 48.0 °F /  8.9 °C 30.20 in /  1022.6 hPa South 2.1 mph /  3.4 km/h 6.0 mph /  9.7 km/h 59 % 0.00 in /  0 mm
16:17 62.5 °F /  16.9 °C 48.4 °F /  9.1 °C 30.19 in /  1022.2 hPa South 4.0 mph /  6.4 km/h 8.1 mph /  13 km/h 60 % 0.00 in /  0 mm
16:22 62.3 °F /  16.8 °C 47.8 °F /  8.8 °C 30.19 in /  1022.2 hPa SSW 5.3 mph /  8.5 km/h 14.0 mph /  22.5 km/h 59 % 0.00 in /  0 mm
16:27 62.2 °F /  16.8 °C 48.1 °F /  8.9 °C 30.19 in /  1022.2 hPa SW 4.9 mph /  7.9 km/h 10.4 mph /  16.7 km/h 60 % 0.00 in /  0 mm
16:32 62.0 °F /  16.7 °C 48.4 °F /  9.1 °C 30.19 in /  1022.2 hPa SW 7.0 mph /  11.3 km/h 12.0 mph /  19.3 km/h 61 % 0.00 in /  0 mm
16:37 61.7 °F /  16.5 °C 48.1 °F /  8.9 °C 30.18 in /  1021.9 hPa SW 6.9 mph /  11.1 km/h 17.3 mph /  27.8 km/h 61 % 0.00 in /  0 mm
16:42 61.3 °F /  16.3 °C 48.2 °F /  9 °C 30.18 in /  1021.9 hPa SSW 4.5 mph /  7.2 km/h 13.8 mph /  22.2 km/h 62 % 0.00 in /  0 mm
16:47 61.1 °F /  16.2 °C 48.4 °F /  9.1 °C 30.18 in /  1021.9 hPa SSW 6.6 mph /  10.6 km/h 13.8 mph /  22.2 km/h 63 % 0.00 in /  0 mm
16:52 61.0 °F /  16.1 °C 48.7 °F /  9.3 °C 30.18 in /  1021.9 hPa South 8.8 mph /  14.2 km/h 19.0 mph /  30.6 km/h 64 % 0.00 in /  0 mm
16:57 60.7 °F /  15.9 °C 48.4 °F /  9.1 °C 30.17 in /  1021.6 hPa SSW 7.5 mph /  12.1 km/h 10.4 mph /  16.7 km/h 64 % 0.00 in /  0 mm
17:02 60.6 °F /  15.9 °C 48.8 °F /  9.3 °C 30.17 in /  1021.6 hPa SSE 5.1 mph /  8.2 km/h 11.5 mph /  18.5 km/h 65 % 0.00 in /  0 mm
17:07 60.3 °F /  15.7 °C 48.9 °F /  9.4 °C 30.17 in /  1021.6 hPa South 7.7 mph /  12.4 km/h 15.0 mph /  24.1 km/h 66 % 0.00 in /  0 mm
17:12 60.0 °F /  15.6 °C 49.0 °F /  9.4 °C 30.17 in /  1021.6 hPa South 10.1 mph /  16.3 km/h 15.0 mph /  24.1 km/h 67 % 0.00 in /  0 mm
17:17 59.8 °F /  15.4 °C 48.8 °F /  9.3 °C 30.17 in /  1021.6 hPa SW 7.6 mph /  12.2 km/h 15.0 mph /  24.1 km/h 67 % 0.00 in /  0 mm
17:22 59.6 °F /  15.3 °C 49.0 °F /  9.4 °C 30.17 in /  1021.6 hPa SSW 6.5 mph /  10.5 km/h 10.4 mph /  16.7 km/h 68 % 0.00 in /  0 mm
17:27 59.5 °F /  15.3 °C 48.9 °F /  9.4 °C 30.17 in /  1021.6 hPa WSW 6.9 mph /  11.1 km/h 21.9 mph /  35.2 km/h 68 % 0.00 in /  0 mm
17:32 59.3 °F /  15.2 °C 49.1 °F /  9.5 °C 30.17 in /  1021.6 hPa South 5.5 mph /  8.9 km/h 9.2 mph /  14.8 km/h 69 % 0.00 in /  0 mm
17:37 59.1 °F /  15.1 °C 49.3 °F /  9.6 °C 30.16 in /  1021.2 hPa South 6.6 mph /  10.6 km/h 15.0 mph /  24.1 km/h 70 % 0.00 in /  0 mm
17:42 59.0 °F /  15 °C 50.0 °F /  10 °C 30.15 in /  1020.9 hPa SSW 3.5 mph /  5.6 km/h 8.1 mph /  13 km/h 72 % 0.00 in /  0 mm
17:47 58.8 °F /  14.9 °C 50.2 °F /  10.1 °C 30.16 in /  1021.2 hPa SW 7.5 mph /  12.1 km/h 12.7 mph /  20.4 km/h 73 % 0.00 in /  0 mm
17:52 58.6 °F /  14.8 °C 50.0 °F /  10 °C 30.16 in /  1021.2 hPa SSW 4.4 mph /  7.1 km/h 10.4 mph /  16.7 km/h 73 % 0.00 in /  0 mm
17:57 58.4 °F /  14.7 °C 49.8 °F /  9.9 °C 30.16 in /  1021.2 hPa South 5.6 mph /  9 km/h 11.5 mph /  18.5 km/h 73 % 0.00 in /  0 mm
18:02 58.3 °F /  14.6 °C 50.0 °F /  10 °C 30.16 in /  1021.2 hPa SSW 6.4 mph /  10.3 km/h 11.5 mph /  18.5 km/h 74 % 0.00 in /  0 mm
18:07 58.1 °F /  14.5 °C 49.9 °F /  9.9 °C 30.16 in /  1021.2 hPa SSE 7.2 mph /  11.6 km/h 12.0 mph /  19.3 km/h 74 % 0.00 in /  0 mm
18:12 57.8 °F /  14.3 °C 49.6 °F /  9.8 °C 30.16 in /  1021.2 hPa SSE 4.6 mph /  7.4 km/h 11.5 mph /  18.5 km/h 74 % 0.00 in /  0 mm
18:17 57.7 °F /  14.3 °C 49.8 °F /  9.9 °C 30.16 in /  1021.2 hPa SSW 5.2 mph /  8.4 km/h 9.2 mph /  14.8 km/h 75 % 0.00 in /  0 mm
18:22 57.6 °F /  14.2 °C 49.7 °F /  9.8 °C 30.16 in /  1021.2 hPa SSW 6.0 mph /  9.7 km/h 12.0 mph /  19.3 km/h 75 % 0.00 in /  0 mm
18:27 57.5 °F /  14.2 °C 49.6 °F /  9.8 °C 30.16 in /  1021.2 hPa South 6.7 mph /  10.8 km/h 8.0 mph /  12.9 km/h 75 % 0.00 in /  0 mm
18:32 57.4 °F /  14.1 °C 49.5 °F /  9.7 °C 30.15 in /  1020.9 hPa SSW 4.6 mph /  7.4 km/h 11.5 mph /  18.5 km/h 75 % 0.00 in /  0 mm
18:37 57.3 °F /  14.1 °C 49.5 °F /  9.7 °C 30.15 in /  1020.9 hPa SSW 8.0 mph /  12.9 km/h 14.0 mph /  22.5 km/h 75 % 0.00 in /  0 mm
18:42 57.2 °F /  14 °C 49.7 °F /  9.8 °C 30.15 in /  1020.9 hPa South 6.0 mph /  9.7 km/h 12.7 mph /  20.4 km/h 76 % 0.00 in /  0 mm
18:47 57.2 °F /  14 °C 49.7 °F /  9.8 °C 30.15 in /  1020.9 hPa South 8.9 mph /  14.3 km/h 16.1 mph /  25.9 km/h 76 % 0.00 in /  0 mm
18:52 57.1 °F /  13.9 °C 50.0 °F /  10 °C 30.15 in /  1020.9 hPa SSW 7.0 mph /  11.3 km/h 15.0 mph /  24.1 km/h 77 % 0.00 in /  0 mm
18:57 57.1 °F /  13.9 °C 50.0 °F /  10 °C 30.15 in /  1020.9 hPa South 6.6 mph /  10.6 km/h 11.5 mph /  18.5 km/h 77 % 0.00 in /  0 mm
19:02 57.0 °F /  13.9 °C 50.2 °F /  10.1 °C 30.15 in /  1020.9 hPa SW 6.2 mph /  10 km/h 12.7 mph /  20.4 km/h 78 % 0.00 in /  0 mm
19:07 57.0 °F /  13.9 °C 50.2 °F /  10.1 °C 30.14 in /  1020.5 hPa South 6.8 mph /  10.9 km/h 13.8 mph /  22.2 km/h 78 % 0.00 in /  0 mm
19:12 57.0 °F /  13.9 °C 50.2 °F /  10.1 °C 30.14 in /  1020.5 hPa South 6.2 mph /  10 km/h 10.4 mph /  16.7 km/h 78 % 0.00 in /  0 mm
19:17 56.9 °F /  13.8 °C 50.5 °F /  10.3 °C 30.14 in /  1020.5 hPa SSW 2.6 mph /  4.2 km/h 5.8 mph /  9.3 km/h 79 % 0.00 in /  0 mm
19:22 56.9 °F /  13.8 °C 50.5 °F /  10.3 °C 30.14 in /  1020.5 hPa South 4.9 mph /  7.9 km/h 6.9 mph /  11.1 km/h 79 % 0.00 in /  0 mm
19:28 56.9 °F /  13.8 °C 50.5 °F /  10.3 °C 30.15 in /  1020.9 hPa SSW 5.9 mph /  9.5 km/h 11.5 mph /  18.5 km/h 79 % 0.00 in /  0 mm
19:32 56.9 °F /  13.8 °C 50.5 °F /  10.3 °C 30.14 in /  1020.5 hPa SW 3.2 mph /  5.1 km/h 8.1 mph /  13 km/h 79 % 0.00 in /  0 mm
19:37 56.9 °F /  13.8 °C 50.8 °F /  10.4 °C 30.14 in /  1020.5 hPa SSW 7.0 mph /  11.3 km/h 12.7 mph /  20.4 km/h 80 % 0.00 in /  0 mm
19:42 57.0 °F /  13.9 °C 50.9 °F /  10.5 °C 30.14 in /  1020.5 hPa SW 6.3 mph /  10.1 km/h 17.0 mph /  27.4 km/h 80 % 0.00 in /  0 mm
19:47 57.0 °F /  13.9 °C 50.9 °F /  10.5 °C 30.13 in /  1020.2 hPa SSW 5.4 mph /  8.7 km/h 8.1 mph /  13 km/h 80 % 0.00 in /  0 mm
19:52 57.0 °F /  13.9 °C 50.9 °F /  10.5 °C 30.12 in /  1019.9 hPa SSW 6.6 mph /  10.6 km/h 12.7 mph /  20.4 km/h 80 % 0.00 in /  0 mm
19:57 57.1 °F /  13.9 °C 51.0 °F /  10.6 °C 30.12 in /  1019.9 hPa South 5.0 mph /  8 km/h 7.0 mph /  11.3 km/h 80 % 0.00 in /  0 mm
20:02 57.1 °F /  13.9 °C 51.3 °F /  10.7 °C 30.12 in /  1019.9 hPa South 6.2 mph /  10 km/h 10.4 mph /  16.7 km/h 81 % 0.00 in /  0 mm
20:07 57.0 °F /  13.9 °C 51.2 °F /  10.7 °C 30.11 in /  1019.5 hPa SSW 5.0 mph /  8 km/h 11.5 mph /  18.5 km/h 81 % 0.00 in /  0 mm
20:12 57.0 °F /  13.9 °C 51.2 °F /  10.7 °C 30.12 in /  1019.9 hPa SW 6.1 mph /  9.8 km/h 9.2 mph /  14.8 km/h 81 % 0.00 in /  0 mm
20:18 56.9 °F /  13.8 °C 51.5 °F /  10.8 °C 30.11 in /  1019.5 hPa SW 6.9 mph /  11.1 km/h 13.8 mph /  22.2 km/h 82 % 0.00 in /  0 mm
20:23 56.9 °F /  13.8 °C 51.5 °F /  10.8 °C 30.11 in /  1019.5 hPa SSW 4.4 mph /  7.1 km/h 8.1 mph /  13 km/h 82 % 0.00 in /  0 mm
20:28 56.8 °F /  13.8 °C 51.4 °F /  10.8 °C 30.12 in /  1019.9 hPa SSW 7.2 mph /  11.6 km/h 11.5 mph /  18.5 km/h 82 % 0.00 in /  0 mm
20:32 56.8 °F /  13.8 °C 51.4 °F /  10.8 °C 30.11 in /  1019.5 hPa SSW 4.4 mph /  7.1 km/h 9.2 mph /  14.8 km/h 82 % 0.00 in /  0 mm
20:37 56.8 °F /  13.8 °C 51.4 °F /  10.8 °C 30.11 in /  1019.5 hPa South 4.3 mph /  6.9 km/h 6.9 mph /  11.1 km/h 82 % 0.00 in /  0 mm
20:43 56.8 °F /  13.8 °C 51.7 °F /  10.9 °C 30.11 in /  1019.5 hPa SW 5.3 mph /  8.5 km/h 7.0 mph /  11.3 km/h 83 % 0.00 in /  0 mm
20:48 56.9 °F /  13.8 °C 51.8 °F /  11 °C 30.10 in /  1019.2 hPa SSW 3.4 mph /  5.5 km/h 10.4 mph /  16.7 km/h 83 % 0.00 in /  0 mm
20:53 57.0 °F /  13.9 °C 52.2 °F /  11.2 °C 30.10 in /  1019.2 hPa South 4.2 mph /  6.8 km/h 10.4 mph /  16.7 km/h 84 % 0.00 in /  0 mm
20:58 57.1 °F /  13.9 °C 52.3 °F /  11.3 °C 30.10 in /  1019.2 hPa SSW 8.2 mph /  13.2 km/h 12.7 mph /  20.4 km/h 84 % 0.00 in /  0 mm
21:03 57.2 °F /  14 °C 52.4 °F /  11.3 °C 30.10 in /  1019.2 hPa SW 4.8 mph /  7.7 km/h 8.1 mph /  13 km/h 84 % 0.00 in /  0 mm
21:08 57.4 °F /  14.1 °C 52.6 °F /  11.4 °C 30.09 in /  1018.8 hPa SW 6.0 mph /  9.7 km/h 13.8 mph /  22.2 km/h 84 % 0.00 in /  0 mm
21:13 57.6 °F /  14.2 °C 52.8 °F /  11.6 °C 30.09 in /  1018.8 hPa South 8.4 mph /  13.5 km/h 19.6 mph /  31.5 km/h 84 % 0.00 in /  0 mm
21:18 57.8 °F /  14.3 °C 53.3 °F /  11.8 °C 30.09 in /  1018.8 hPa South 9.8 mph /  15.8 km/h 15.0 mph /  24.1 km/h 85 % 0.00 in /  0 mm
21:23 57.9 °F /  14.4 °C 53.1 °F /  11.7 °C 30.09 in /  1018.8 hPa SSW 7.4 mph /  11.9 km/h 17.3 mph /  27.8 km/h 84 % 0.00 in /  0 mm
21:28 57.9 °F /  14.4 °C 53.1 °F /  11.7 °C 30.09 in /  1018.8 hPa South 6.7 mph /  10.8 km/h 12.7 mph /  20.4 km/h 84 % 0.00 in /  0 mm
21:33 58.0 °F /  14.4 °C 53.2 °F /  11.8 °C 30.09 in /  1018.8 hPa SSW 6.1 mph /  9.8 km/h 12.7 mph /  20.4 km/h 84 % 0.00 in /  0 mm
21:38 58.0 °F /  14.4 °C 53.2 °F /  11.8 °C 30.08 in /  1018.5 hPa SW 8.5 mph /  13.7 km/h 11.5 mph /  18.5 km/h 84 % 0.00 in /  0 mm
21:43 58.0 °F /  14.4 °C 53.2 °F /  11.8 °C 30.08 in /  1018.5 hPa SSW 8.1 mph /  13 km/h 15.0 mph /  24.1 km/h 84 % 0.00 in /  0 mm
21:48 57.9 °F /  14.4 °C 53.1 °F /  11.7 °C 30.08 in /  1018.5 hPa SSW 3.2 mph /  5.1 km/h 8.1 mph /  13 km/h 84 % 0.00 in /  0 mm
21:53 57.9 °F /  14.4 °C 53.1 °F /  11.7 °C 30.08 in /  1018.5 hPa SW 4.4 mph /  7.1 km/h 13.0 mph /  20.9 km/h 84 % 0.00 in /  0 mm
21:58 57.8 °F /  14.3 °C 53.0 °F /  11.7 °C 30.08 in /  1018.5 hPa South 7.7 mph /  12.4 km/h 13.0 mph /  20.9 km/h 84 % 0.00 in /  0 mm
22:03 57.7 °F /  14.3 °C 52.9 °F /  11.6 °C 30.08 in /  1018.5 hPa WSW 6.6 mph /  10.6 km/h 13.8 mph /  22.2 km/h 84 % 0.00 in /  0 mm
22:08 57.6 °F /  14.2 °C 53.1 °F /  11.7 °C 30.08 in /  1018.5 hPa SSW 3.4 mph /  5.5 km/h 12.7 mph /  20.4 km/h 85 % 0.00 in /  0 mm
22:13 57.5 °F /  14.2 °C 53.0 °F /  11.7 °C 30.08 in /  1018.5 hPa SW 5.8 mph /  9.3 km/h 9.0 mph /  14.5 km/h 85 % 0.00 in /  0 mm
22:18 57.4 °F /  14.1 °C 52.9 °F /  11.6 °C 30.08 in /  1018.5 hPa South 7.3 mph /  11.7 km/h 11.5 mph /  18.5 km/h 85 % 0.00 in /  0 mm
22:23 57.3 °F /  14.1 °C 52.8 °F /  11.6 °C 30.08 in /  1018.5 hPa SSW 5.1 mph /  8.2 km/h 11.5 mph /  18.5 km/h 85 % 0.00 in /  0 mm
22:28 57.2 °F /  14 °C 53.0 °F /  11.7 °C 30.07 in /  1018.2 hPa SSW 4.1 mph /  6.6 km/h 10.4 mph /  16.7 km/h 86 % 0.00 in /  0 mm
22:33 57.1 °F /  13.9 °C 53.0 °F /  11.7 °C 30.07 in /  1018.2 hPa SSW 5.9 mph /  9.5 km/h 11.5 mph /  18.5 km/h 86 % 0.00 in /  0 mm
22:38 57.0 °F /  13.9 °C 52.9 °F /  11.6 °C 30.07 in /  1018.2 hPa SW 3.7 mph /  6 km/h 5.8 mph /  9.3 km/h 86 % 0.00 in /  0 mm
22:43 56.9 °F /  13.8 °C 52.8 °F /  11.6 °C 30.07 in /  1018.2 hPa SSW 5.5 mph /  8.9 km/h 7.0 mph /  11.3 km/h 86 % 0.00 in /  0 mm
22:48 56.8 °F /  13.8 °C 53.0 °F /  11.7 °C 30.07 in /  1018.2 hPa South 4.5 mph /  7.2 km/h 9.2 mph /  14.8 km/h 87 % 0.00 in /  0 mm
22:53 56.7 °F /  13.7 °C 52.9 °F /  11.6 °C 30.07 in /  1018.2 hPa SSW 4.3 mph /  6.9 km/h 8.1 mph /  13 km/h 87 % 0.00 in /  0 mm
22:58 56.6 °F /  13.7 °C 52.8 °F /  11.6 °C 30.07 in /  1018.2 hPa South 4.8 mph /  7.7 km/h 8.0 mph /  12.9 km/h 87 % 0.00 in /  0 mm
23:03 56.5 °F /  13.6 °C 53.0 °F /  11.7 °C 30.07 in /  1018.2 hPa South 4.0 mph /  6.4 km/h 5.8 mph /  9.3 km/h 88 % 0.00 in /  0 mm
23:08 56.4 °F /  13.6 °C 52.9 °F /  11.6 °C 30.06 in /  1017.8 hPa South 3.6 mph /  5.8 km/h 7.0 mph /  11.3 km/h 88 % 0.00 in /  0 mm
23:13 56.3 °F /  13.5 °C 52.8 °F /  11.6 °C 30.06 in /  1017.8 hPa SSW 5.6 mph /  9 km/h 7.0 mph /  11.3 km/h 88 % 0.00 in /  0 mm
23:18 56.2 °F /  13.4 °C 52.7 °F /  11.5 °C 30.05 in /  1017.5 hPa SSW 3.8 mph /  6.1 km/h 8.1 mph /  13 km/h 88 % 0.00 in /  0 mm
23:23 56.2 °F /  13.4 °C 53.0 °F /  11.7 °C 30.05 in /  1017.5 hPa SSW 3.8 mph /  6.1 km/h 5.8 mph /  9.3 km/h 89 % 0.00 in /  0 mm
23:29 56.1 °F /  13.4 °C 52.9 °F /  11.6 °C 30.05 in /  1017.5 hPa WSW 1.3 mph /  2.1 km/h 3.5 mph /  5.6 km/h 89 % 0.00 in /  0 mm
23:34 56.1 °F /  13.4 °C 52.9 °F /  11.6 °C 30.05 in /  1017.5 hPa SSW 3.1 mph /  5 km/h 5.8 mph /  9.3 km/h 89 % 0.00 in /  0 mm
23:39 56.0 °F /  13.3 °C 52.8 °F /  11.6 °C 30.05 in /  1017.5 hPa South 3.4 mph /  5.5 km/h 4.6 mph /  7.4 km/h 89 % 0.00 in /  0 mm
23:44 56.0 °F /  13.3 °C 53.1 °F /  11.7 °C 30.05 in /  1017.5 hPa SW 1.0 mph /  1.6 km/h 5.8 mph /  9.3 km/h 90 % 0.00 in /  0 mm
23:49 55.9 °F /  13.3 °C 53.0 °F /  11.7 °C 30.05 in /  1017.5 hPa SSW 1.5 mph /  2.4 km/h 6.9 mph /  11.1 km/h 90 % 0.00 in /  0 mm
23:54 55.9 °F /  13.3 °C 53.0 °F /  11.7 °C 30.05 in /  1017.5 hPa SSW 1.8 mph /  2.9 km/h 4.6 mph /  7.4 km/h 90 % 0.00 in /  0 mm
23:59 55.9 °F /  13.3 °C 53.0 °F /  11.7 °C 30.05 in /  1017.5 hPa SSW 4.0 mph /  6.4 km/h 4.0 mph /  6.4 km/h 90 % 0.00 in /  0 mm
Crab Meadow Weather
Compliments of Weather Underground - 3 mb

Script developed by  Jim McMurry - jmcmurry@mwt.net Adapted for the template by  Wim van der Kuil - Leuven-Template.eu

Extremes: The most widespread U.S. cold wave was in February of 1899. It was so cold that the Mississippi River froze over its entire length, with ice as thick as two inches even in New Orleans.